createdAt,value
2018-07-08T00:03:22.676Z,42.00
2018-07-08T00:08:25.907Z,42.10
2018-07-08T00:13:29.098Z,42.00
2018-07-08T00:18:32.310Z,42.10
2018-07-08T00:23:35.561Z,42.10
2018-07-08T00:28:38.791Z,42.20
2018-07-08T00:33:42.030Z,43.00
2018-07-08T00:38:45.247Z,42.30
2018-07-08T00:43:48.547Z,42.40
2018-07-08T00:48:51.767Z,42.20
2018-07-08T00:53:55.041Z,42.40
2018-07-08T00:58:58.275Z,42.50
2018-07-08T01:04:01.504Z,42.30
2018-07-08T01:09:05.363Z,42.60
2018-07-08T01:14:08.584Z,42.70
2018-07-08T01:19:11.799Z,42.80
2018-07-08T01:24:15.079Z,42.70
2018-07-08T01:29:18.303Z,42.70
2018-07-08T01:34:21.504Z,42.80
2018-07-08T01:39:24.732Z,42.60
2018-07-08T01:44:27.985Z,42.80
2018-07-08T01:49:31.139Z,42.70
2018-07-08T01:54:34.358Z,42.90
2018-07-08T01:59:37.572Z,42.90
2018-07-08T02:04:40.798Z,43.10
2018-07-08T02:09:44.027Z,43.00
2018-07-08T02:14:47.495Z,43.10
2018-07-08T02:19:50.690Z,42.90
2018-07-08T02:24:53.927Z,43.00
2018-07-08T02:29:57.132Z,43.00
2018-07-08T02:35:00.555Z,43.30
2018-07-08T02:40:03.808Z,43.40
2018-07-08T02:45:07.036Z,43.30
2018-07-08T02:50:10.242Z,43.30
2018-07-08T02:55:13.467Z,43.40
2018-07-08T03:00:16.669Z,43.60
2018-07-08T03:05:19.887Z,43.60
2018-07-08T03:10:23.071Z,43.40
2018-07-08T03:15:26.247Z,43.50
2018-07-08T03:20:29.439Z,43.50
2018-07-08T03:25:32.623Z,43.40
2018-07-08T03:30:35.815Z,43.70
2018-07-08T03:35:38.999Z,44.00
2018-07-08T03:40:42.176Z,44.00
2018-07-08T03:45:45.364Z,43.80
2018-07-08T03:50:48.547Z,43.80
2018-07-08T03:55:51.751Z,43.90
2018-07-08T04:00:54.931Z,44.10
2018-07-08T04:05:58.167Z,44.20
2018-07-08T04:11:01.372Z,44.10
2018-07-08T04:16:04.639Z,44.00
2018-07-08T04:21:07.855Z,44.20
2018-07-08T04:26:11.100Z,44.30
2018-07-08T04:31:14.311Z,44.30
2018-07-08T04:36:17.523Z,44.20
2018-07-08T04:41:20.823Z,44.30
2018-07-08T04:46:24.022Z,44.40
2018-07-08T04:51:27.226Z,44.40
2018-07-08T04:56:30.436Z,44.40
2018-07-08T05:06:36.749Z,44.50
2018-07-08T05:11:39.883Z,44.60
2018-07-08T05:16:43.098Z,44.60
2018-07-08T05:21:46.306Z,44.70
2018-07-08T05:26:49.536Z,44.90
2018-07-08T05:31:52.747Z,44.50
2018-07-08T05:36:55.992Z,44.60
2018-07-08T05:41:59.208Z,44.70
2018-07-08T05:47:02.408Z,44.80
2018-07-08T05:52:06.463Z,44.80
2018-07-08T05:57:09.650Z,44.90
2018-07-08T06:02:13.358Z,44.90
2018-07-08T06:07:16.819Z,44.80
2018-07-08T06:12:20.035Z,45.10
2018-07-08T06:17:23.264Z,45.00
2018-07-08T06:22:26.483Z,45.10
2018-07-08T06:27:29.683Z,45.20
2018-07-08T06:32:32.871Z,45.20
2018-07-08T06:37:36.075Z,45.10
2018-07-08T06:42:39.275Z,45.50
2018-07-08T06:47:42.679Z,45.40
2018-07-08T06:52:45.896Z,45.30
2018-07-08T06:57:49.145Z,45.00
2018-07-08T07:02:52.550Z,44.90
2018-07-08T07:07:55.896Z,44.80
2018-07-08T07:12:59.162Z,44.90
2018-07-08T07:18:02.328Z,44.40
2018-07-08T07:23:05.604Z,44.60
2018-07-08T07:28:08.743Z,44.80
2018-07-08T07:33:12.042Z,44.40
2018-07-08T07:38:15.247Z,44.60
2018-07-08T07:43:18.463Z,45.10
2018-07-08T07:48:21.675Z,44.70
2018-07-08T07:53:24.875Z,44.70
2018-07-08T07:58:28.071Z,44.40
2018-07-08T08:03:31.607Z,44.60
2018-07-08T08:08:34.858Z,45.00
2018-07-08T08:13:45.520Z,44.40
2018-07-08T08:18:48.696Z,44.70
2018-07-08T08:23:51.977Z,44.60
2018-07-08T08:28:55.179Z,44.30
2018-07-08T08:35:08.547Z,44.70
2018-07-08T08:40:12.452Z,44.50
2018-07-08T08:45:17.296Z,44.90
2018-07-08T08:50:20.473Z,44.80
2018-07-08T08:55:23.647Z,44.40
2018-07-08T09:00:26.829Z,43.30
2018-07-08T09:05:31.172Z,44.30
2018-07-08T09:10:34.715Z,44.90
2018-07-08T09:15:37.888Z,45.40
2018-07-08T09:20:41.078Z,44.50
2018-07-08T09:25:44.264Z,42.80
2018-07-08T09:30:47.475Z,44.40
2018-07-08T09:35:50.739Z,44.70
2018-07-08T09:40:53.916Z,43.40
2018-07-08T09:45:57.134Z,43.10
2018-07-08T09:51:00.308Z,43.40
2018-07-08T09:56:03.503Z,43.40
2018-07-08T10:01:06.715Z,42.70
2018-07-08T10:06:09.984Z,41.40
2018-07-08T10:11:13.166Z,41.40
2018-07-08T10:16:16.379Z,42.40
2018-07-08T10:21:19.565Z,41.30
2018-07-08T10:26:22.756Z,40.60
2018-07-08T10:36:34.558Z,41.60
2018-07-08T10:41:37.723Z,41.60
2018-07-08T10:46:41.219Z,41.00
2018-07-08T10:51:44.416Z,42.20
2018-07-08T10:56:47.598Z,40.80
2018-07-08T11:01:50.813Z,42.60
2018-07-08T11:06:54.032Z,40.60
2018-07-08T11:11:57.311Z,42.70
2018-07-08T11:17:00.519Z,41.00
2018-07-08T11:22:03.731Z,41.20
2018-07-08T11:27:07.143Z,38.90
2018-07-08T11:32:10.351Z,39.60
2018-07-08T11:37:13.628Z,41.40
2018-07-08T11:42:16.838Z,42.80
2018-07-08T11:52:23.035Z,41.80
2018-07-08T11:57:26.244Z,42.40
2018-07-08T12:02:29.620Z,41.40
2018-07-08T12:07:32.834Z,40.20
2018-07-08T12:12:36.020Z,38.00
2018-07-08T12:17:39.206Z,40.20
2018-07-08T12:22:42.392Z,42.50
2018-07-08T12:27:45.686Z,39.00
2018-07-08T12:32:48.762Z,42.20
2018-07-08T12:37:52.031Z,40.40
2018-07-08T12:42:55.223Z,41.70
2018-07-08T12:47:58.414Z,38.20
2018-07-08T12:53:01.589Z,39.20
2018-07-08T12:58:04.835Z,39.00
2018-07-08T13:03:08.023Z,41.70
2018-07-08T13:08:11.239Z,40.90
2018-07-08T13:13:14.430Z,39.90
2018-07-08T13:18:17.615Z,38.60
2018-07-08T13:23:20.803Z,40.60
2018-07-08T13:28:23.983Z,40.80
2018-07-08T13:33:27.355Z,35.70
2018-07-08T13:38:30.546Z,37.90
2018-07-08T13:43:33.731Z,38.20
2018-07-08T13:48:36.920Z,36.60
2018-07-08T13:53:40.104Z,36.80
2018-07-08T13:58:43.284Z,37.90
2018-07-08T14:03:46.506Z,38.90
2018-07-08T14:08:49.694Z,36.90
2018-07-08T14:13:52.907Z,36.50
2018-07-08T14:18:56.088Z,35.60
2018-07-08T14:23:59.280Z,38.00
2018-07-08T14:29:02.465Z,37.80
2018-07-08T14:34:05.675Z,36.60
2018-07-08T14:39:09.579Z,38.40
2018-07-08T14:44:12.759Z,37.50
2018-07-08T14:49:15.959Z,37.90
2018-07-08T14:54:19.187Z,35.20
2018-07-08T14:59:22.373Z,39.20
2018-07-08T15:04:25.559Z,38.80
2018-07-08T15:09:28.763Z,36.30
2018-07-08T15:14:31.956Z,34.40
2018-07-08T15:19:35.151Z,33.50
2018-07-08T15:24:38.327Z,35.50
2018-07-08T15:29:41.523Z,37.40
2018-07-08T15:34:44.752Z,35.00
2018-07-08T15:39:47.931Z,37.00
2018-07-08T15:44:51.155Z,35.90
2018-07-08T15:49:54.373Z,35.70
2018-07-08T15:54:57.532Z,37.40
2018-07-08T16:00:00.730Z,37.00
2018-07-08T16:05:03.927Z,35.10
2018-07-08T16:10:07.807Z,32.90
2018-07-08T16:15:11.028Z,34.00
2018-07-08T16:20:14.243Z,34.90
2018-07-08T16:25:17.443Z,33.70
2018-07-08T16:30:20.643Z,35.90
2018-07-08T16:35:23.852Z,34.90
2018-07-08T16:40:27.047Z,33.60
2018-07-08T16:45:30.261Z,35.00
2018-07-08T16:50:33.475Z,36.50
2018-07-08T16:55:36.719Z,35.40
2018-07-08T17:00:39.915Z,34.00
2018-07-08T17:05:43.144Z,34.90
2018-07-08T17:10:46.359Z,34.50
2018-07-08T17:15:49.582Z,34.50
2018-07-08T17:20:52.859Z,36.80
2018-07-08T17:25:56.075Z,36.70
2018-07-08T17:30:59.292Z,36.20
2018-07-08T17:36:02.500Z,35.30
2018-07-08T17:41:06.120Z,35.20
2018-07-08T17:46:09.342Z,35.30
2018-07-08T17:51:12.555Z,36.80
2018-07-08T17:56:15.751Z,35.60
2018-07-08T18:01:18.975Z,35.50
2018-07-08T18:06:22.195Z,34.70
2018-07-08T18:11:25.382Z,35.60
2018-07-08T18:16:28.558Z,35.50
2018-07-08T18:21:31.752Z,36.30
2018-07-08T18:26:34.951Z,36.10
2018-07-08T18:31:38.263Z,36.40
2018-07-08T18:36:41.447Z,36.70
2018-07-08T18:41:44.645Z,36.10
2018-07-08T18:46:47.832Z,36.70
2018-07-08T18:51:51.448Z,36.80
2018-07-08T18:56:54.639Z,37.10
2018-07-08T19:01:58.040Z,36.70
2018-07-08T19:07:01.259Z,37.20
2018-07-08T19:12:04.467Z,37.40
2018-07-08T19:17:07.863Z,36.60
2018-07-08T19:22:11.054Z,36.80
2018-07-08T19:27:14.267Z,37.10
2018-07-08T19:32:17.507Z,37.30
2018-07-08T19:37:20.840Z,37.80
2018-07-08T19:42:24.182Z,37.10
2018-07-08T19:47:27.507Z,37.50
2018-07-08T19:52:30.751Z,37.80
2018-07-08T19:57:34.098Z,38.40
2018-07-08T20:02:37.387Z,38.20
2018-07-08T20:07:40.829Z,38.30
2018-07-08T20:12:44.323Z,38.70
2018-07-08T20:17:47.619Z,38.90
2018-07-08T20:22:50.819Z,39.00
2018-07-08T20:27:54.734Z,39.00
2018-07-08T20:32:58.008Z,39.00
2018-07-08T20:38:01.252Z,38.70
2018-07-08T20:43:04.805Z,38.90
2018-07-08T20:48:08.069Z,38.80
2018-07-08T20:53:11.227Z,38.90
2018-07-08T20:58:14.774Z,39.00
2018-07-08T21:03:18.151Z,39.10
2018-07-08T21:08:21.383Z,39.20
2018-07-08T21:13:24.745Z,39.20
2018-07-08T21:18:27.971Z,39.30
2018-07-08T21:23:31.155Z,39.40
2018-07-08T21:28:34.343Z,39.40
2018-07-08T21:33:37.992Z,39.50
2018-07-08T21:38:41.456Z,39.70
2018-07-08T21:43:44.699Z,39.70
2018-07-08T21:48:47.917Z,39.80
2018-07-08T21:53:52.179Z,39.90
2018-07-08T21:58:55.386Z,40.00
2018-07-08T22:03:58.603Z,40.10
2018-07-08T22:09:01.821Z,40.20
2018-07-08T22:14:04.999Z,40.20
2018-07-08T22:19:08.180Z,40.40
2018-07-08T22:24:11.363Z,40.50
2018-07-08T22:29:14.555Z,40.50
2018-07-08T22:34:17.747Z,40.60
2018-07-08T22:39:20.933Z,40.60
2018-07-08T22:44:24.116Z,40.80
2018-07-08T22:49:27.302Z,40.90
2018-07-08T22:54:30.479Z,41.00
2018-07-08T22:59:43.923Z,41.10
2018-07-08T23:04:47.111Z,41.20
2018-07-08T23:09:50.338Z,41.40
2018-07-08T23:14:53.563Z,41.30
2018-07-08T23:19:57.180Z,42.10
2018-07-08T23:25:00.376Z,41.60
2018-07-08T23:30:03.840Z,41.60
2018-07-08T23:35:07.118Z,41.70
2018-07-08T23:40:10.335Z,41.70
2018-07-08T23:45:17.066Z,41.90
2018-07-08T23:50:20.283Z,41.90
2018-07-08T23:55:23.492Z,42.00
